createdAt,value
2018-06-09T00:00:59.681Z,19.60
2018-06-09T00:03:28.250Z,19.59
2018-06-09T00:05:56.826Z,19.54
2018-06-09T00:08:25.380Z,19.48
2018-06-09T00:10:53.940Z,19.50
2018-06-09T00:13:22.640Z,19.51
2018-06-09T00:15:51.223Z,19.52
2018-06-09T00:18:20.193Z,19.49
2018-06-09T00:20:48.825Z,19.45
2018-06-09T00:23:17.457Z,19.42
2018-06-09T00:25:46.153Z,19.41
2018-06-09T00:28:14.824Z,19.41
2018-06-09T00:30:43.506Z,19.44
2018-06-09T00:33:12.110Z,19.43
2018-06-09T00:35:40.755Z,19.41
2018-06-09T00:38:09.311Z,19.40
2018-06-09T00:40:37.929Z,19.36
2018-06-09T00:43:06.732Z,19.34
2018-06-09T00:45:35.401Z,19.31
2018-06-09T00:48:04.005Z,19.30
2018-06-09T00:50:33.212Z,19.25
2018-06-09T00:53:01.989Z,19.25
2018-06-09T00:55:30.562Z,19.24
2018-06-09T00:58:00.052Z,19.19
2018-06-09T01:00:28.625Z,19.18
2018-06-09T01:02:57.191Z,19.16
2018-06-09T01:05:25.777Z,19.11
2018-06-09T01:07:54.479Z,19.10
2018-06-09T01:10:24.111Z,19.09
2018-06-09T01:12:53.124Z,19.03
2018-06-09T01:15:21.692Z,18.97
2018-06-09T01:17:50.348Z,18.93
2018-06-09T01:20:19.020Z,18.83
2018-06-09T01:22:47.586Z,18.77
2018-06-09T01:25:16.478Z,18.69
2018-06-09T01:27:45.155Z,18.64
2018-06-09T01:30:13.825Z,18.58
2018-06-09T01:32:42.395Z,18.51
2018-06-09T01:35:11.013Z,18.46
2018-06-09T01:37:39.744Z,18.40
2018-06-09T01:40:09.210Z,18.34
2018-06-09T01:42:43.805Z,18.32
2018-06-09T01:45:12.365Z,18.28
2018-06-09T01:47:41.633Z,18.25
2018-06-09T01:50:10.264Z,18.20
2018-06-09T01:52:38.831Z,18.15
2018-06-09T01:55:07.429Z,18.12
2018-06-09T01:57:36.854Z,18.09
2018-06-09T02:00:05.729Z,18.07
2018-06-09T02:02:34.285Z,18.03
2018-06-09T02:05:02.893Z,17.99
2018-06-09T02:07:35.993Z,17.95
2018-06-09T02:10:04.807Z,17.89
2018-06-09T02:12:33.373Z,17.87
2018-06-09T02:15:01.921Z,17.83
2018-06-09T02:17:30.521Z,17.79
2018-06-09T02:19:59.229Z,17.75
2018-06-09T02:22:27.907Z,17.72
2018-06-09T02:24:56.464Z,17.70
2018-06-09T02:27:25.040Z,17.68
2018-06-09T02:30:19.017Z,17.67
2018-06-09T02:32:47.629Z,17.65
2018-06-09T02:35:16.240Z,17.64
2018-06-09T02:37:44.859Z,17.64
2018-06-09T02:40:13.503Z,17.58
2018-06-09T02:42:42.236Z,17.54
2018-06-09T02:45:10.812Z,17.53
2018-06-09T02:47:39.456Z,17.49
2018-06-09T02:50:08.039Z,17.46
2018-06-09T02:52:36.607Z,17.43
2018-06-09T02:55:05.354Z,17.39
2018-06-09T02:57:33.919Z,17.37
2018-06-09T03:00:02.588Z,17.36
2018-06-09T03:02:31.275Z,17.35
2018-06-09T03:04:59.942Z,17.33
2018-06-09T03:07:28.514Z,17.31
2018-06-09T03:09:57.106Z,17.25
2018-06-09T03:12:39.563Z,17.23
2018-06-09T03:15:17.169Z,17.18
2018-06-09T03:17:45.731Z,17.15
2018-06-09T03:20:14.272Z,17.15
2018-06-09T03:22:42.886Z,17.18
2018-06-09T03:25:11.440Z,17.17
2018-06-09T03:27:40.341Z,17.19
2018-06-09T03:30:08.940Z,17.20
2018-06-09T03:32:37.630Z,17.21
2018-06-09T03:35:06.329Z,17.24
2018-06-09T03:37:35.013Z,17.25
2018-06-09T03:40:03.886Z,17.24
2018-06-09T03:42:32.961Z,17.26
2018-06-09T03:45:01.512Z,17.25
2018-06-09T03:47:43.070Z,17.27
2018-06-09T03:50:12.302Z,17.27
2018-06-09T03:52:40.942Z,17.29
2018-06-09T03:55:09.493Z,17.30
2018-06-09T03:57:38.063Z,17.31
2018-06-09T04:00:06.721Z,17.33
2018-06-09T04:02:35.368Z,17.34
2018-06-09T04:05:04.225Z,17.37
2018-06-09T04:07:33.976Z,17.42
2018-06-09T04:10:02.550Z,17.44
2018-06-09T04:12:31.374Z,17.49
2018-06-09T04:15:00.047Z,17.51
2018-06-09T04:17:28.957Z,17.55
2018-06-09T04:19:57.609Z,17.64
2018-06-09T04:22:26.271Z,17.81
2018-06-09T04:24:54.845Z,17.92
2018-06-09T04:27:23.421Z,17.98
2018-06-09T04:29:52.217Z,17.96
2018-06-09T04:32:20.837Z,17.93
2018-06-09T04:34:49.424Z,17.87
2018-06-09T04:37:18.012Z,17.86
2018-06-09T04:39:46.752Z,17.84
2018-06-09T04:42:15.383Z,17.83
2018-06-09T04:44:43.982Z,17.83
2018-06-09T04:47:12.581Z,17.84
2018-06-09T04:49:41.292Z,17.87
2018-06-09T04:52:11.071Z,17.86
2018-06-09T04:54:40.485Z,17.86
2018-06-09T04:57:09.262Z,17.90
2018-06-09T04:59:37.936Z,17.95
2018-06-09T05:02:06.714Z,18.00
2018-06-09T05:04:35.428Z,18.05
2018-06-09T05:07:04.008Z,18.10
2018-06-09T05:09:32.575Z,18.15
2018-06-09T05:12:01.158Z,18.16
2018-06-09T05:14:29.804Z,18.21
2018-06-09T05:16:59.041Z,18.25
2018-06-09T05:19:27.626Z,18.29
2018-06-09T05:21:56.302Z,18.30
2018-06-09T05:24:24.919Z,18.34
2018-06-09T05:26:53.589Z,18.34
2018-06-09T05:29:22.276Z,18.33
2018-06-09T05:31:50.862Z,18.33
2018-06-09T05:34:19.548Z,18.40
2018-06-09T05:36:48.238Z,18.45
2018-06-09T05:39:39.928Z,18.52
2018-06-09T05:42:08.520Z,18.59
2018-06-09T05:44:37.110Z,18.69
2018-06-09T05:47:05.857Z,18.80
2018-06-09T05:49:34.491Z,18.89
2018-06-09T05:52:03.925Z,18.98
2018-06-09T05:54:32.569Z,19.01
2018-06-09T05:57:01.853Z,19.02
2018-06-09T05:59:30.672Z,18.99
2018-06-09T06:01:59.255Z,19.08
2018-06-09T06:04:27.839Z,19.12
2018-06-09T06:06:56.651Z,19.08
2018-06-09T06:09:25.360Z,19.06
2018-06-09T06:11:54.022Z,19.13
2018-06-09T06:14:22.609Z,19.16
2018-06-09T06:16:51.353Z,19.17
2018-06-09T06:19:34.230Z,19.22
2018-06-09T06:22:02.882Z,19.26
2018-06-09T06:24:31.575Z,19.30
2018-06-09T06:27:00.948Z,19.32
2018-06-09T06:29:29.549Z,19.37
2018-06-09T06:31:58.195Z,19.50
2018-06-09T06:34:26.778Z,19.60
2018-06-09T06:36:55.452Z,19.72
2018-06-09T06:39:24.091Z,19.90
2018-06-09T06:41:52.817Z,20.03
2018-06-09T06:44:21.383Z,20.04
2018-06-09T06:47:07.561Z,20.04
2018-06-09T06:49:49.585Z,19.99
2018-06-09T06:52:18.158Z,20.06
2018-06-09T06:54:46.725Z,20.11
2018-06-09T06:57:15.292Z,20.14
2018-06-09T06:59:43.990Z,20.16
2018-06-09T07:02:24.014Z,20.14
2018-06-09T07:04:52.629Z,20.14
2018-06-09T07:07:22.503Z,20.12
2018-06-09T07:10:09.760Z,20.22
2018-06-09T07:12:38.326Z,20.25
2018-06-09T07:15:07.033Z,20.38
2018-06-09T07:17:35.865Z,20.47
2018-06-09T07:20:04.739Z,20.52
2018-06-09T07:22:34.177Z,20.57
2018-06-09T07:25:02.827Z,20.62
2018-06-09T07:27:31.409Z,20.59
2018-06-09T07:30:00.096Z,20.64
2018-06-09T07:32:28.843Z,20.66
2018-06-09T07:34:57.504Z,20.73
2018-06-09T07:37:26.064Z,20.80
2018-06-09T07:39:54.732Z,20.81
2018-06-09T07:42:23.459Z,20.87
2018-06-09T07:44:52.093Z,20.87
2018-06-09T07:47:20.744Z,20.93
2018-06-09T07:49:49.316Z,20.92
2018-06-09T07:52:18.588Z,21.01
2018-06-09T07:54:47.353Z,21.07
2018-06-09T07:57:15.941Z,21.19
2018-06-09T07:59:44.548Z,21.28
2018-06-09T08:02:13.227Z,21.33
2018-06-09T08:04:41.789Z,21.27
2018-06-09T08:07:10.768Z,21.31
2018-06-09T08:09:39.341Z,21.39
2018-06-09T08:12:08.111Z,21.41
2018-06-09T08:14:36.796Z,21.44
2018-06-09T08:17:05.513Z,21.51
2018-06-09T08:19:34.220Z,21.58
2018-06-09T08:22:02.959Z,21.68
2018-06-09T08:24:31.716Z,21.72
2018-06-09T08:27:00.289Z,21.70
2018-06-09T08:29:28.864Z,21.71
2018-06-09T08:31:57.660Z,21.78
2018-06-09T08:34:28.236Z,21.85
2018-06-09T08:36:56.870Z,21.81
2018-06-09T08:39:25.559Z,21.88
2018-06-09T08:41:54.155Z,21.99
2018-06-09T08:44:22.822Z,22.11
2018-06-09T08:46:51.409Z,22.10
2018-06-09T08:49:20.129Z,22.06
2018-06-09T08:51:48.696Z,22.08
2018-06-09T08:54:17.263Z,22.15
2018-06-09T08:56:46.184Z,22.21
2018-06-09T08:59:14.844Z,22.37
2018-06-09T09:01:44.078Z,22.50
2018-06-09T09:04:12.688Z,22.57
2018-06-09T09:06:41.317Z,22.60
2018-06-09T09:09:10.020Z,22.64
2018-06-09T09:11:38.790Z,22.66
2018-06-09T09:14:07.509Z,22.68
2018-06-09T09:16:36.214Z,22.80
2018-06-09T09:19:04.860Z,22.77
2018-06-09T09:21:34.054Z,22.79
2018-06-09T09:24:02.691Z,22.88
2018-06-09T09:26:31.442Z,22.93
2018-06-09T09:29:18.876Z,22.98
2018-06-09T09:31:49.685Z,23.13
2018-06-09T09:34:18.234Z,23.18
2018-06-09T09:36:46.970Z,23.36
2018-06-09T09:39:16.842Z,23.49
2018-06-09T09:41:45.496Z,23.54
2018-06-09T09:44:26.836Z,23.63
2018-06-09T09:46:55.409Z,23.79
2018-06-09T09:49:23.961Z,23.83
2018-06-09T09:51:52.603Z,23.97
2018-06-09T09:54:25.256Z,24.15
2018-06-09T09:56:55.269Z,24.22
2018-06-09T09:59:23.821Z,24.28
2018-06-09T10:01:53.459Z,24.38
2018-06-09T10:04:25.173Z,24.37
2018-06-09T10:06:53.755Z,24.44
2018-06-09T10:09:22.365Z,24.51
2018-06-09T10:11:55.250Z,24.58
2018-06-09T10:14:24.603Z,24.71
2018-06-09T10:16:53.458Z,24.89
2018-06-09T10:19:22.566Z,25.05
2018-06-09T10:25:34.877Z,25.13
2018-06-09T10:28:06.017Z,25.29
2018-06-09T10:30:34.739Z,25.41
2018-06-09T10:33:05.362Z,25.53
2018-06-09T10:35:36.052Z,25.72
2018-06-09T10:38:05.055Z,25.83
2018-06-09T10:40:33.660Z,25.88
2018-06-09T10:43:02.569Z,26.02
2018-06-09T10:45:31.240Z,26.10
2018-06-09T10:47:59.937Z,26.29
2018-06-09T10:50:28.561Z,26.33
2018-06-09T10:52:57.109Z,26.23
2018-06-09T10:55:25.793Z,26.32
2018-06-09T10:57:54.563Z,26.41
2018-06-09T11:00:23.147Z,26.62
2018-06-09T11:02:51.943Z,26.94
2018-06-09T11:05:20.680Z,27.09
2018-06-09T11:07:50.232Z,27.33
2018-06-09T11:10:20.551Z,27.27
2018-06-09T11:12:49.244Z,27.22
2018-06-09T11:15:18.087Z,26.82
2018-06-09T11:17:46.812Z,27.18
2018-06-09T11:20:15.421Z,27.51
2018-06-09T11:22:45.223Z,27.80
2018-06-09T11:25:13.913Z,28.03
2018-06-09T11:27:42.731Z,28.20
2018-06-09T11:30:11.375Z,28.27
2018-06-09T11:32:40.031Z,28.33
2018-06-09T11:35:08.851Z,28.60
2018-06-09T11:37:37.528Z,29.00
2018-06-09T11:40:06.375Z,29.24
2018-06-09T11:42:35.005Z,29.50
2018-06-09T11:45:03.607Z,29.96
2018-06-09T11:47:32.337Z,30.29
2018-06-09T11:50:00.973Z,30.45
2018-06-09T11:52:29.869Z,30.50
2018-06-09T11:54:58.491Z,30.66
2018-06-09T11:57:27.066Z,30.72
2018-06-09T11:59:55.695Z,30.92
2018-06-09T12:02:31.852Z,31.15
2018-06-09T12:05:00.538Z,31.52
2018-06-09T12:07:29.156Z,31.61
2018-06-09T12:09:57.837Z,31.68
2018-06-09T12:12:26.528Z,32.01
2018-06-09T12:14:55.209Z,31.35
2018-06-09T12:17:24.025Z,30.29
2018-06-09T12:19:52.677Z,30.18
2018-06-09T12:22:21.470Z,31.04
2018-06-09T12:24:50.122Z,31.45
2018-06-09T12:27:18.730Z,31.63
2018-06-09T12:29:47.316Z,31.58
2018-06-09T12:32:16.028Z,32.14
2018-06-09T12:34:44.783Z,32.14
2018-06-09T12:37:13.426Z,32.47
2018-06-09T12:39:42.773Z,32.50
2018-06-09T12:42:11.459Z,32.62
2018-06-09T12:44:40.289Z,32.91
2018-06-09T12:47:08.851Z,32.34
2018-06-09T12:49:58.175Z,32.02
2018-06-09T12:52:26.886Z,32.68
2018-06-09T12:54:55.466Z,32.97
2018-06-09T12:57:24.171Z,32.39
2018-06-09T12:59:52.770Z,31.74
2018-06-09T13:02:21.316Z,30.76
2018-06-09T13:04:54.924Z,30.01
2018-06-09T13:07:23.534Z,29.57
2018-06-09T13:09:52.232Z,29.51
2018-06-09T13:12:20.816Z,29.98
2018-06-09T13:14:49.450Z,29.79
2018-06-09T13:17:18.209Z,29.57
2018-06-09T13:19:46.821Z,29.37
2018-06-09T13:22:16.025Z,28.93
2018-06-09T13:24:44.616Z,28.66
2018-06-09T13:27:13.924Z,28.51
2018-06-09T13:29:42.593Z,28.60
2018-06-09T13:32:11.294Z,28.85
2018-06-09T13:34:39.964Z,29.81
2018-06-09T13:37:08.770Z,30.69
2018-06-09T13:39:37.428Z,31.07
2018-06-09T13:42:06.080Z,31.43
2018-06-09T13:44:34.767Z,31.04
2018-06-09T13:47:03.511Z,30.44
2018-06-09T13:49:32.192Z,30.25
2018-06-09T13:52:00.865Z,30.05
2018-06-09T13:54:30.290Z,29.88
2018-06-09T13:56:58.894Z,29.87
2018-06-09T13:59:27.530Z,29.45
2018-06-09T14:01:56.133Z,29.19
2018-06-09T14:04:24.727Z,29.79
2018-06-09T14:06:53.518Z,30.46
2018-06-09T14:09:22.117Z,30.95
2018-06-09T14:11:59.274Z,31.35
2018-06-09T14:14:27.965Z,31.45
2018-06-09T14:16:56.635Z,31.50
2018-06-09T14:19:26.010Z,31.64
2018-06-09T14:21:54.603Z,31.70
2018-06-09T14:24:23.457Z,31.37
2018-06-09T14:26:52.258Z,31.42
2018-06-09T14:29:20.799Z,31.44
2018-06-09T14:31:49.382Z,31.37
2018-06-09T14:34:18.021Z,30.85
2018-06-09T14:36:46.628Z,30.98
2018-06-09T14:39:15.209Z,30.72
2018-06-09T14:41:43.885Z,30.47
2018-06-09T14:44:12.473Z,30.16
2018-06-09T14:46:41.153Z,29.83
2018-06-09T14:49:09.784Z,29.57
2018-06-09T14:51:38.480Z,29.36
2018-06-09T14:54:07.331Z,29.25
2018-06-09T14:56:35.969Z,29.35
2018-06-09T14:59:04.811Z,29.55
2018-06-09T15:01:33.592Z,29.87
2018-06-09T15:04:02.374Z,29.58
2018-06-09T15:06:30.953Z,29.54
2018-06-09T15:08:59.568Z,29.72
2018-06-09T15:11:28.276Z,29.89
2018-06-09T15:13:56.804Z,29.92
2018-06-09T15:16:25.482Z,29.93
2018-06-09T15:19:19.225Z,29.92
2018-06-09T15:21:47.811Z,29.84
2018-06-09T15:24:16.485Z,29.92
2018-06-09T15:26:45.267Z,29.99
2018-06-09T15:29:13.909Z,30.11
2018-06-09T15:31:49.953Z,29.97
2018-06-09T15:34:18.665Z,29.96
2018-06-09T15:36:47.353Z,29.96
2018-06-09T15:39:16.756Z,29.93
2018-06-09T15:41:45.446Z,29.90
2018-06-09T15:44:14.096Z,30.11
2018-06-09T15:46:42.780Z,30.06
2018-06-09T15:49:11.909Z,29.87
2018-06-09T15:51:40.630Z,29.60
2018-06-09T15:54:09.206Z,29.71
2018-06-09T15:56:37.945Z,29.83
2018-06-09T15:59:10.112Z,29.76
2018-06-09T16:01:38.699Z,29.57
2018-06-09T16:04:07.401Z,29.20
2018-06-09T16:06:36.087Z,29.11
2018-06-09T16:09:06.466Z,28.91
2018-06-09T16:11:35.056Z,28.88
2018-06-09T16:14:03.779Z,28.99
2018-06-09T16:16:32.461Z,29.03
2018-06-09T16:19:04.221Z,29.06
2018-06-09T16:21:32.788Z,29.14
2018-06-09T16:24:01.429Z,29.23
2018-06-09T16:26:30.064Z,29.29
2018-06-09T16:28:58.690Z,29.21
2018-06-09T16:31:27.289Z,29.14
2018-06-09T16:33:55.917Z,29.19
2018-06-09T16:36:41.668Z,29.28
2018-06-09T16:39:10.292Z,29.20
2018-06-09T16:41:38.961Z,29.23
2018-06-09T16:44:07.659Z,29.17
2018-06-09T16:46:36.491Z,29.06
2018-06-09T16:49:05.137Z,28.96
2018-06-09T16:51:33.813Z,28.83
2018-06-09T16:54:04.076Z,28.67
2018-06-09T16:57:03.001Z,28.57
2018-06-09T16:59:31.633Z,28.45
2018-06-09T17:02:00.383Z,28.41
2018-06-09T17:04:29.123Z,28.39
2018-06-09T17:06:57.761Z,28.45
2018-06-09T17:09:26.345Z,28.39
2018-06-09T17:11:55.076Z,28.46
2018-06-09T17:14:23.672Z,28.46
2018-06-09T17:16:52.424Z,28.40
2018-06-09T17:19:21.092Z,28.36
2018-06-09T17:21:49.838Z,28.36
2018-06-09T17:24:18.384Z,28.30
2018-06-09T17:26:54.166Z,28.25
2018-06-09T17:29:22.801Z,28.23
2018-06-09T17:31:51.412Z,28.12
2018-06-09T17:34:19.996Z,28.04
2018-06-09T17:36:48.639Z,27.89
2018-06-09T17:39:17.957Z,27.82
2018-06-09T17:41:46.523Z,27.72
2018-06-09T17:44:15.109Z,27.67
2018-06-09T17:46:43.712Z,27.65
2018-06-09T17:49:12.325Z,27.58
2018-06-09T17:51:40.988Z,27.52
2018-06-09T17:54:09.676Z,27.53
2018-06-09T17:56:38.368Z,27.46
2018-06-09T17:59:07.045Z,27.31
2018-06-09T18:01:35.628Z,27.18
2018-06-09T18:04:04.401Z,27.02
2018-06-09T18:06:33.001Z,26.94
2018-06-09T18:09:01.588Z,26.84
2018-06-09T18:11:30.273Z,26.72
2018-06-09T18:13:59.012Z,26.63
2018-06-09T18:16:27.624Z,26.54
2018-06-09T18:18:56.323Z,26.45
2018-06-09T18:21:25.020Z,26.35
2018-06-09T18:24:08.542Z,26.29
2018-06-09T18:26:37.204Z,26.23
2018-06-09T18:29:05.831Z,26.15
2018-06-09T18:31:34.505Z,26.07
2018-06-09T18:34:03.297Z,25.99
2018-06-09T18:36:31.993Z,25.94
2018-06-09T18:39:00.697Z,25.89
2018-06-09T18:41:29.265Z,25.84
2018-06-09T18:43:57.936Z,25.78
2018-06-09T18:46:26.521Z,25.72
2018-06-09T18:48:55.160Z,25.66
2018-06-09T18:51:23.920Z,25.58
2018-06-09T18:53:52.572Z,25.52
2018-06-09T18:56:22.183Z,25.46
2018-06-09T18:58:51.097Z,25.42
2018-06-09T19:01:19.723Z,25.37
2018-06-09T19:03:49.081Z,25.35
2018-06-09T19:06:25.042Z,25.29
2018-06-09T19:08:54.785Z,25.19
2018-06-09T19:11:23.437Z,25.12
2018-06-09T19:13:52.086Z,25.06
2018-06-09T19:16:20.692Z,25.01
2018-06-09T19:18:49.366Z,24.92
2018-06-09T19:21:21.371Z,24.82
2018-06-09T19:23:49.972Z,24.75
2018-06-09T19:26:18.620Z,24.72
2018-06-09T19:28:48.012Z,24.68
2018-06-09T19:31:16.869Z,24.56
2018-06-09T19:33:46.170Z,24.50
2018-06-09T19:36:15.449Z,24.46
2018-06-09T19:38:45.273Z,24.39
2018-06-09T19:41:13.993Z,24.31
2018-06-09T19:43:43.303Z,24.20
2018-06-09T19:46:11.899Z,24.14
2018-06-09T19:48:40.595Z,24.07
2018-06-09T19:51:09.322Z,23.95
2018-06-09T19:53:38.195Z,23.87
2018-06-09T19:56:06.854Z,23.84
2018-06-09T19:58:35.558Z,23.76
2018-06-09T20:01:04.980Z,23.70
2018-06-09T20:03:33.671Z,23.67
2018-06-09T20:06:03.780Z,23.59
2018-06-09T20:08:32.398Z,23.49
2018-06-09T20:11:01.247Z,23.40
2018-06-09T20:13:30.126Z,23.32
2018-06-09T20:15:58.992Z,23.22
2018-06-09T20:18:27.828Z,23.19
2018-06-09T20:20:56.538Z,23.16
2018-06-09T20:23:25.388Z,23.14
2018-06-09T20:25:54.172Z,23.08
2018-06-09T20:28:23.089Z,23.02
2018-06-09T20:30:52.067Z,23.03
2018-06-09T20:33:22.062Z,22.98
2018-06-09T20:35:50.877Z,22.94
2018-06-09T20:38:19.845Z,22.91
2018-06-09T20:40:48.463Z,22.82
2018-06-09T20:43:17.212Z,22.74
2018-06-09T20:45:46.107Z,22.70
2018-06-09T20:48:37.055Z,22.65
2018-06-09T20:51:05.920Z,22.59
2018-06-09T20:53:34.610Z,22.52
2018-06-09T20:56:04.043Z,22.48
2018-06-09T20:58:39.296Z,22.42
2018-06-09T21:01:08.360Z,22.33
2018-06-09T21:03:37.273Z,22.23
2018-06-09T21:06:06.172Z,22.20
2018-06-09T21:08:34.911Z,22.16
2018-06-09T21:11:03.662Z,22.14
2018-06-09T21:13:32.433Z,22.14
2018-06-09T21:16:01.214Z,22.12
2018-06-09T21:18:29.830Z,22.02
2018-06-09T21:20:58.564Z,21.94
2018-06-09T21:23:27.926Z,21.89
2018-06-09T21:25:57.385Z,21.86
2018-06-09T21:28:27.975Z,21.82
2018-06-09T21:31:01.890Z,21.81
2018-06-09T21:33:47.290Z,21.81
2018-06-09T21:36:20.827Z,21.75
2018-06-09T21:38:54.831Z,21.75
2018-06-09T21:41:27.614Z,21.78
2018-06-09T21:44:01.152Z,21.81
2018-06-09T21:46:35.248Z,21.84
2018-06-09T21:49:04.686Z,21.87
2018-06-09T21:51:33.364Z,21.87
2018-06-09T21:54:02.780Z,21.87
2018-06-09T21:56:31.441Z,21.85
2018-06-09T21:59:00.244Z,21.85
2018-06-09T22:01:28.932Z,21.81
2018-06-09T22:03:57.634Z,21.79
2018-06-09T22:06:26.293Z,21.78
2018-06-09T22:08:55.039Z,21.73
2018-06-09T22:11:24.379Z,21.69
2018-06-09T22:13:53.036Z,21.67
2018-06-09T22:16:21.654Z,21.65
2018-06-09T22:18:50.348Z,21.62
2018-06-09T22:21:19.278Z,21.56
2018-06-09T22:23:48.069Z,21.53
2018-06-09T22:26:17.033Z,21.52
2018-06-09T22:28:45.684Z,21.50
2018-06-09T22:31:14.384Z,21.48
2018-06-09T22:33:43.010Z,21.45
2018-06-09T22:36:11.608Z,21.43
2018-06-09T22:38:40.340Z,21.42
2018-06-09T22:41:09.037Z,21.41
2018-06-09T22:43:37.711Z,21.39
2018-06-09T22:46:06.428Z,21.35
2018-06-09T22:48:35.121Z,21.32
2018-06-09T22:51:03.721Z,21.31
2018-06-09T22:53:32.549Z,21.33
2018-06-09T22:56:01.256Z,21.31
2018-06-09T22:58:30.005Z,21.29
2018-06-09T23:00:58.925Z,21.28
2018-06-09T23:03:27.649Z,21.25
2018-06-09T23:06:13.217Z,21.26
2018-06-09T23:08:41.887Z,21.25
2018-06-09T23:11:10.468Z,21.25
2018-06-09T23:13:39.150Z,21.24
2018-06-09T23:16:07.747Z,21.19
2018-06-09T23:18:36.288Z,21.15
2018-06-09T23:21:12.281Z,21.09
2018-06-09T23:23:40.949Z,21.02
2018-06-09T23:26:09.537Z,20.97
2018-06-09T23:28:38.443Z,20.93
2018-06-09T23:31:07.086Z,20.90
2018-06-09T23:33:35.837Z,20.88
2018-06-09T23:36:04.412Z,20.83
2018-06-09T23:38:33.084Z,20.76
2018-06-09T23:41:01.867Z,20.71
2018-06-09T23:43:30.557Z,20.66
2018-06-09T23:45:59.188Z,20.62
2018-06-09T23:48:27.823Z,20.60
2018-06-09T23:50:56.397Z,20.55
2018-06-09T23:53:25.251Z,20.51
2018-06-09T23:56:04.896Z,20.47
2018-06-09T23:58:33.452Z,20.42
